createdAt,value
2023-05-14T00:01:23.667Z,100863.19
2023-05-14T00:06:25.279Z,100856.22
2023-05-14T00:11:26.736Z,100852.53
2023-05-14T00:16:28.203Z,100848.72
2023-05-14T00:21:29.668Z,100839.84
2023-05-14T00:26:31.116Z,100841.44
2023-05-14T00:31:32.675Z,100830.84
2023-05-14T00:36:34.186Z,100830.63
2023-05-14T00:41:35.728Z,100824.09
2023-05-14T00:46:37.294Z,100828.81
2023-05-14T00:51:41.432Z,100823.19
2023-05-14T00:56:45.320Z,100824.34
2023-05-14T01:01:46.797Z,100821.81
2023-05-14T01:07:09.471Z,100818.78
2023-05-14T01:12:34.598Z,100809.16
2023-05-14T01:17:42.671Z,100809.63
2023-05-14T01:22:44.189Z,100803.50
2023-05-14T01:28:05.844Z,100808.94
2023-05-14T01:33:11.160Z,100806.13
2023-05-14T01:38:14.974Z,100808.19
2023-05-14T01:43:17.101Z,100798.22
2023-05-14T01:48:18.913Z,100793.47
2023-05-14T01:53:20.639Z,100805.09
2023-05-14T01:58:22.223Z,100805.84
2023-05-14T02:03:23.681Z,100809.66
2023-05-14T02:08:25.282Z,100807.81
2023-05-14T02:13:26.855Z,100797.38
2023-05-14T02:18:28.275Z,100796.53
2023-05-14T02:23:40.479Z,100791.34
2023-05-14T02:28:42.838Z,100790.06
2023-05-14T02:33:44.363Z,100791.75
2023-05-14T02:38:45.884Z,100797.66
2023-05-14T02:43:47.342Z,100786.38
2023-05-14T02:48:49.144Z,100792.06
2023-05-14T02:53:50.607Z,100791.84
2023-05-14T02:58:52.188Z,100794.69
2023-05-14T03:03:53.639Z,100781.09
2023-05-14T03:08:55.121Z,100789.38
2023-05-14T03:13:56.667Z,100784.31
2023-05-14T03:18:58.163Z,100787.69
2023-05-14T03:23:59.661Z,100788.19
2023-05-14T03:29:02.101Z,100785.31
2023-05-14T03:34:03.637Z,100779.03
2023-05-14T03:39:06.964Z,100774.31
2023-05-14T03:44:10.327Z,100764.91
2023-05-14T03:49:11.914Z,100761.41
2023-05-14T03:54:13.569Z,100760.69
2023-05-14T03:59:15.102Z,100763.53
2023-05-14T04:04:16.603Z,100760.84
2023-05-14T04:09:18.069Z,100746.13
2023-05-14T04:14:19.535Z,100751.78
2023-05-14T04:19:21.006Z,100750.66
2023-05-14T04:24:22.499Z,100750.91
2023-05-14T04:29:23.925Z,100745.03
2023-05-14T04:34:26.113Z,100740.59
2023-05-14T04:39:27.534Z,100738.91
2023-05-14T04:44:28.970Z,100733.78
2023-05-14T04:49:30.924Z,100733.78
2023-05-14T04:54:32.527Z,100742.16
2023-05-14T04:59:34.028Z,100744.50
2023-05-14T05:04:35.457Z,100737.25
2023-05-14T05:09:36.879Z,100737.72
2023-05-14T05:14:38.337Z,100742.84
2023-05-14T05:19:43.875Z,100738.59
2023-05-14T05:24:46.469Z,100735.91
2023-05-14T05:29:48.473Z,100737.72
2023-05-14T05:34:51.842Z,100726.63
2023-05-14T05:39:53.961Z,100723.94
2023-05-14T05:44:56.238Z,100719.47
2023-05-14T05:49:57.734Z,100716.28
2023-05-14T05:54:59.160Z,100718.78
2023-05-14T06:00:01.036Z,100724.69
2023-05-14T06:05:02.522Z,100728.75
2023-05-14T06:10:04.751Z,100727.06
2023-05-14T06:15:06.929Z,100720.50
2023-05-14T06:20:08.969Z,100717.28
2023-05-14T06:25:10.892Z,100707.78
2023-05-14T06:30:13.019Z,100711.94
2023-05-14T06:35:14.544Z,100713.34
2023-05-14T06:40:16.103Z,100707.31
2023-05-14T06:45:17.622Z,100702.88
2023-05-14T06:50:19.352Z,100692.81
2023-05-14T06:55:20.883Z,100689.69
2023-05-14T07:00:22.783Z,100695.91
2023-05-14T07:05:25.075Z,100684.69
2023-05-14T07:10:26.723Z,100679.13
2023-05-14T07:15:28.262Z,100676.25
2023-05-14T07:20:29.708Z,100665.78
2023-05-14T07:25:32.617Z,100666.41
2023-05-14T07:30:34.060Z,100664.03
2023-05-14T07:35:35.558Z,100656.63
2023-05-14T07:40:36.990Z,100653.88
2023-05-14T07:45:41.393Z,100642.63
2023-05-14T07:50:43.001Z,100646.00
2023-05-14T07:55:45.333Z,100641.19
2023-05-14T08:00:46.794Z,100638.91
2023-05-14T08:06:34.053Z,100640.31
2023-05-14T08:11:36.516Z,100639.31
2023-05-14T08:16:38.761Z,100623.47
2023-05-14T08:21:40.260Z,100625.56
2023-05-14T08:26:41.910Z,100624.03
2023-05-14T08:31:43.491Z,100610.66
2023-05-14T08:36:44.956Z,100609.16
2023-05-14T08:41:46.571Z,100608.38
2023-05-14T08:46:49.752Z,100604.78
2023-05-14T08:51:51.343Z,100606.28
2023-05-14T08:56:53.524Z,100596.53
2023-05-14T09:01:56.649Z,100598.06
2023-05-14T09:07:01.193Z,100584.09
2023-05-14T09:12:02.772Z,100586.50
2023-05-14T09:17:04.317Z,100583.59
2023-05-14T09:22:09.289Z,100582.59
2023-05-14T09:27:22.133Z,100577.59
2023-05-14T09:32:23.583Z,100574.16
2023-05-14T09:37:26.051Z,100566.41
2023-05-14T09:42:27.986Z,100564.38
2023-05-14T09:47:29.519Z,100553.13
2023-05-14T09:52:31.197Z,100552.34
2023-05-14T09:57:33.517Z,100550.28
2023-05-14T10:02:41.076Z,100534.78
2023-05-14T10:07:47.587Z,100531.63
2023-05-14T10:12:53.513Z,100531.50
2023-05-14T10:17:58.640Z,100531.50
2023-05-14T10:23:01.018Z,100526.03
2023-05-14T10:28:03.057Z,100524.44
2023-05-14T10:33:16.538Z,100515.44
2023-05-14T10:38:21.896Z,100512.81
2023-05-14T10:43:26.934Z,100507.59
2023-05-14T10:48:28.954Z,100500.72
2023-05-14T10:53:35.800Z,100498.19
2023-05-14T10:58:39.204Z,100495.63
2023-05-14T11:03:46.175Z,100497.88
2023-05-14T11:08:50.422Z,100480.56
2023-05-14T11:13:53.597Z,100484.72
2023-05-14T11:19:05.068Z,100478.59
2023-05-14T11:24:07.406Z,100475.44
2023-05-14T11:29:10.499Z,100467.72
2023-05-14T11:34:11.962Z,100467.13
2023-05-14T11:39:19.550Z,100463.75
2023-05-14T11:44:21.146Z,100455.56
2023-05-14T11:49:24.166Z,100456.50
2023-05-14T11:54:27.535Z,100452.25
2023-05-14T11:59:31.685Z,100450.16
2023-05-14T12:04:33.300Z,100440.91
2023-05-14T12:09:39.204Z,100435.25
2023-05-14T12:14:42.667Z,100440.63
2023-05-14T12:19:46.000Z,100426.91
2023-05-14T12:24:58.130Z,100422.81
2023-05-14T12:30:19.123Z,100419.41
2023-05-14T12:35:22.901Z,100412.00
2023-05-14T12:40:25.229Z,100401.56
2023-05-14T12:45:26.958Z,100404.13
2023-05-14T12:50:28.434Z,100397.78
2023-05-14T12:55:29.992Z,100387.91
2023-05-14T13:00:31.433Z,100381.56
2023-05-14T13:05:33.276Z,100375.91
2023-05-14T13:10:34.729Z,100371.97
2023-05-14T13:15:36.162Z,100368.63
2023-05-14T13:20:37.602Z,100375.88
2023-05-14T13:25:39.164Z,100369.03
2023-05-14T13:30:40.645Z,100366.75
2023-05-14T13:35:42.086Z,100367.34
2023-05-14T13:40:43.509Z,100362.56
2023-05-14T13:45:44.949Z,100365.66
2023-05-14T13:50:46.377Z,100357.84
2023-05-14T13:55:49.290Z,100353.22
2023-05-14T14:00:51.887Z,100347.34
2023-05-14T14:05:53.357Z,100346.75
2023-05-14T14:10:55.475Z,100347.72
2023-05-14T14:15:57.317Z,100343.69
2023-05-14T14:20:58.800Z,100331.72
2023-05-14T14:26:07.105Z,100332.63
2023-05-14T14:36:09.967Z,100319.03
2023-05-14T14:41:11.468Z,100311.47
2023-05-14T14:46:13.758Z,100311.22
2023-05-14T14:51:15.356Z,100313.88
2023-05-14T14:56:16.829Z,100311.41
2023-05-14T15:01:18.472Z,100302.66
2023-05-14T15:06:19.966Z,100299.19
2023-05-14T15:11:21.999Z,100302.03
2023-05-14T15:16:23.510Z,100295.97
2023-05-14T15:21:25.035Z,100297.06
2023-05-14T15:26:26.698Z,100299.34
2023-05-14T15:31:28.259Z,100304.00
2023-05-14T15:36:29.771Z,100297.28
2023-05-14T15:41:31.493Z,100299.09
2023-05-14T15:46:33.085Z,100286.44
2023-05-14T15:51:34.813Z,100286.03
2023-05-14T15:56:36.242Z,100287.88
2023-05-14T16:01:37.759Z,100291.13
2023-05-14T16:06:41.871Z,100284.94
2023-05-14T16:11:43.303Z,100283.66
2023-05-14T16:16:44.825Z,100281.19
2023-05-14T16:21:46.300Z,100282.84
2023-05-14T16:26:47.845Z,100285.41
2023-05-14T16:31:49.556Z,100272.00
2023-05-14T16:36:51.077Z,100271.00
2023-05-14T16:41:52.598Z,100268.97
2023-05-14T16:46:54.068Z,100263.81
2023-05-14T16:51:55.605Z,100268.88
2023-05-14T17:03:28.653Z,100271.84
2023-05-14T17:08:33.382Z,100282.31
2023-05-14T17:13:34.837Z,100279.00
2023-05-14T17:18:36.330Z,100271.25
2023-05-14T17:23:37.937Z,100269.31
2023-05-14T17:28:39.592Z,100275.06
2023-05-14T17:33:41.057Z,100275.00
2023-05-14T17:38:42.485Z,100280.19
2023-05-14T17:50:40.138Z,100269.16
2023-05-14T17:55:43.578Z,100267.22
2023-05-14T18:00:45.110Z,100263.44
2023-05-14T18:05:46.559Z,100270.13
2023-05-14T18:10:47.988Z,100269.16
2023-05-14T18:15:51.539Z,100269.97
2023-05-14T18:20:53.351Z,100276.66
2023-05-14T18:25:54.833Z,100276.25
2023-05-14T18:30:56.324Z,100270.53
2023-05-14T18:35:57.976Z,100276.28
2023-05-14T18:40:59.450Z,100275.88
2023-05-14T18:46:00.975Z,100278.47
2023-05-14T18:51:02.403Z,100279.72
2023-05-14T18:56:04.239Z,100283.44
2023-05-14T19:01:05.799Z,100285.31
2023-05-14T19:06:07.570Z,100288.78
2023-05-14T19:11:09.001Z,100288.38
2023-05-14T19:16:11.133Z,100293.50
2023-05-14T19:21:14.762Z,100297.34
2023-05-14T19:26:16.215Z,100303.25
2023-05-14T19:31:17.837Z,100303.56
2023-05-14T19:36:20.376Z,100307.03
2023-05-14T19:41:21.811Z,100302.44
2023-05-14T19:46:23.314Z,100293.66
2023-05-14T19:51:25.388Z,100300.84
2023-05-14T19:56:27.760Z,100287.84
2023-05-14T20:01:29.426Z,100288.72
2023-05-14T20:06:32.028Z,100279.50
2023-05-14T20:11:33.480Z,100277.25
2023-05-14T20:16:34.918Z,100273.34
2023-05-14T20:21:36.345Z,100271.78
2023-05-14T20:26:37.790Z,100282.06
2023-05-14T20:31:39.217Z,100273.19
2023-05-14T20:36:41.749Z,100275.34
2023-05-14T20:41:45.480Z,100260.81
2023-05-14T20:46:47.050Z,100260.19
2023-05-14T20:51:48.498Z,100256.53
2023-05-14T20:56:50.335Z,100250.22
2023-05-14T21:01:51.859Z,100248.75
2023-05-14T21:06:53.970Z,100244.56
2023-05-14T21:11:55.451Z,100246.81
2023-05-14T21:16:56.925Z,100243.34
2023-05-14T21:21:58.346Z,100241.19
2023-05-14T21:26:59.793Z,100236.72
2023-05-14T21:32:01.258Z,100232.28
2023-05-14T21:37:03.437Z,100232.47
2023-05-14T21:42:05.132Z,100232.50
2023-05-14T21:47:07.678Z,100232.31
2023-05-14T21:52:09.119Z,100221.66
2023-05-14T21:57:10.578Z,100215.16
2023-05-14T22:02:12.088Z,100209.16
2023-05-14T22:07:13.641Z,100205.00
2023-05-14T22:12:15.072Z,100207.84
2023-05-14T22:17:16.622Z,100210.75
2023-05-14T22:22:18.062Z,100202.16
2023-05-14T22:27:19.589Z,100193.72
2023-05-14T22:32:21.291Z,100185.78
2023-05-14T22:37:22.732Z,100189.34
2023-05-14T22:42:24.216Z,100181.84
2023-05-14T22:47:26.384Z,100172.84
2023-05-14T22:52:27.862Z,100179.91
2023-05-14T22:57:29.414Z,100162.84
2023-05-14T23:02:30.944Z,100155.06
2023-05-14T23:07:32.508Z,100155.75
2023-05-14T23:12:34.015Z,100152.03
2023-05-14T23:17:35.514Z,100149.88
2023-05-14T23:22:37.013Z,100144.84
2023-05-14T23:27:38.506Z,100126.53
2023-05-14T23:32:39.947Z,100131.00
2023-05-14T23:37:46.944Z,100133.06
2023-05-14T23:42:48.567Z,100119.75
2023-05-14T23:47:50.134Z,100104.50
2023-05-14T23:52:52.961Z,100102.28
2023-05-14T23:57:54.398Z,100099.81
